createdAt,value
2023-05-11T00:00:35.197Z,10.00
2023-05-11T00:03:01.888Z,10.00
2023-05-11T00:05:28.506Z,10.00
2023-05-11T00:07:55.063Z,10.00
2023-05-11T00:10:21.722Z,10.00
2023-05-11T00:12:48.283Z,10.00
2023-05-11T00:15:14.861Z,9.90
2023-05-11T00:17:41.422Z,9.90
2023-05-11T00:20:08.488Z,9.90
2023-05-11T00:22:35.160Z,9.90
2023-05-11T00:25:01.743Z,9.90
2023-05-11T00:27:28.283Z,9.90
2023-05-11T00:29:54.882Z,9.90
2023-05-11T00:32:21.500Z,9.90
2023-05-11T00:34:48.065Z,9.90
2023-05-11T00:37:14.688Z,9.90
2023-05-11T00:39:41.274Z,9.90
2023-05-11T00:42:07.899Z,9.90
2023-05-11T00:44:34.560Z,9.90
2023-05-11T00:47:01.265Z,9.90
2023-05-11T00:49:27.982Z,10.00
2023-05-11T00:51:54.797Z,9.90
2023-05-11T00:54:21.401Z,9.90
2023-05-11T00:56:47.936Z,9.90
2023-05-11T00:59:14.565Z,9.90
2023-05-11T01:01:41.334Z,9.90
2023-05-11T01:04:08.397Z,9.90
2023-05-11T01:06:54.056Z,9.90
2023-05-11T01:09:43.831Z,9.90
2023-05-11T01:12:43.128Z,9.90
2023-05-11T01:15:16.822Z,9.90
2023-05-11T01:17:51.009Z,10.00
2023-05-11T01:20:23.498Z,9.90
2023-05-11T01:23:05.406Z,9.90
2023-05-11T01:25:38.180Z,9.90
2023-05-11T01:28:07.907Z,9.90
2023-05-11T01:30:43.723Z,9.90
2023-05-11T01:33:14.333Z,9.90
2023-05-11T01:35:51.681Z,9.90
2023-05-11T01:38:21.403Z,9.80
2023-05-11T01:40:54.632Z,9.80
2023-05-11T01:43:25.605Z,9.70
2023-05-11T01:45:55.577Z,9.70
2023-05-11T01:48:25.722Z,9.80
2023-05-11T01:50:52.754Z,9.80
2023-05-11T01:53:20.169Z,9.70
2023-05-11T01:55:48.590Z,9.60
2023-05-11T01:58:16.952Z,9.60
2023-05-11T02:00:45.096Z,9.60
2023-05-11T02:03:13.892Z,9.60
2023-05-11T02:05:42.737Z,9.60
2023-05-11T02:08:10.633Z,9.60
2023-05-11T02:10:39.822Z,9.60
2023-05-11T02:13:07.448Z,9.50
2023-05-11T02:15:38.422Z,9.60
2023-05-11T02:18:08.288Z,9.60
2023-05-11T02:20:36.180Z,9.50
2023-05-11T02:23:03.569Z,9.60
2023-05-11T02:25:30.754Z,9.50
2023-05-11T02:27:57.324Z,9.50
2023-05-11T02:30:26.990Z,9.50
2023-05-11T02:32:55.935Z,9.50
2023-05-11T02:35:25.335Z,9.50
2023-05-11T02:37:55.692Z,9.50
2023-05-11T02:40:28.587Z,9.50
2023-05-11T02:43:00.316Z,9.50
2023-05-11T02:45:31.249Z,9.50
2023-05-11T02:48:00.391Z,9.50
2023-05-11T02:50:28.838Z,9.50
2023-05-11T02:52:59.468Z,9.50
2023-05-11T02:55:27.462Z,9.50
2023-05-11T02:57:54.457Z,9.50
2023-05-11T03:00:21.454Z,9.50
2023-05-11T03:02:48.690Z,9.50
2023-05-11T03:05:15.333Z,9.40
2023-05-11T03:07:42.123Z,9.40
2023-05-11T03:10:09.614Z,9.50
2023-05-11T03:12:36.919Z,9.40
2023-05-11T03:15:05.616Z,9.40
2023-05-11T03:17:32.559Z,9.40
2023-05-11T03:20:00.213Z,9.40
2023-05-11T03:22:27.596Z,9.40
2023-05-11T03:24:54.325Z,9.30
2023-05-11T03:27:21.120Z,9.40
2023-05-11T03:29:49.868Z,9.30
2023-05-11T03:32:16.519Z,9.30
2023-05-11T03:34:43.156Z,9.30
2023-05-11T03:37:12.141Z,9.30
2023-05-11T03:39:39.299Z,9.30
2023-05-11T03:42:07.406Z,9.30
2023-05-11T03:44:34.919Z,9.30
2023-05-11T03:47:04.152Z,9.20
2023-05-11T03:49:30.999Z,9.30
2023-05-11T03:51:57.736Z,9.30
2023-05-11T03:54:24.715Z,9.30
2023-05-11T03:56:51.463Z,9.30
2023-05-11T03:59:18.838Z,9.40
2023-05-11T04:01:45.742Z,9.40
2023-05-11T04:04:12.439Z,9.30
2023-05-11T04:06:39.034Z,9.30
2023-05-11T04:09:05.574Z,9.30
2023-05-11T04:11:36.488Z,9.20
2023-05-11T04:14:03.060Z,9.30
2023-05-11T04:16:29.923Z,9.20
2023-05-11T04:18:56.651Z,9.30
2023-05-11T04:21:23.348Z,9.30
2023-05-11T04:23:49.878Z,9.30
2023-05-11T04:26:16.412Z,9.30
2023-05-11T04:28:42.937Z,9.30
2023-05-11T04:31:09.488Z,9.30
2023-05-11T04:33:36.306Z,9.30
2023-05-11T04:36:03.018Z,9.40
2023-05-11T04:38:29.574Z,9.40
2023-05-11T04:40:56.110Z,9.40
2023-05-11T04:43:22.706Z,9.40
2023-05-11T04:45:50.284Z,9.50
2023-05-11T04:48:20.396Z,9.50
2023-05-11T04:50:47.447Z,9.50
2023-05-11T04:53:14.191Z,9.50
2023-05-11T04:55:40.744Z,9.50
2023-05-11T04:58:07.350Z,9.50
2023-05-11T05:00:33.910Z,9.50
2023-05-11T05:03:00.544Z,9.50
2023-05-11T05:05:27.177Z,9.50
2023-05-11T05:07:53.995Z,9.50
2023-05-11T05:10:20.736Z,9.50
2023-05-11T05:12:47.803Z,9.50
2023-05-11T05:15:15.001Z,9.50
2023-05-11T05:17:41.659Z,9.50
2023-05-11T05:20:08.574Z,9.50
2023-05-11T05:22:35.145Z,9.50
2023-05-11T05:25:01.769Z,9.50
2023-05-11T05:27:28.356Z,9.50
2023-05-11T05:29:54.904Z,9.50
2023-05-11T05:32:21.450Z,9.50
2023-05-11T05:34:48.025Z,9.50
2023-05-11T05:37:14.589Z,9.50
2023-05-11T05:39:41.186Z,9.50
2023-05-11T05:42:07.793Z,9.60
2023-05-11T05:44:34.456Z,9.50
2023-05-11T05:47:01.006Z,9.60
2023-05-11T05:49:27.531Z,9.60
2023-05-11T05:51:54.557Z,9.60
2023-05-11T05:54:21.120Z,9.60
2023-05-11T05:56:47.704Z,9.50
2023-05-11T05:59:14.361Z,9.60
2023-05-11T06:01:40.952Z,9.50
2023-05-11T06:04:07.697Z,9.60
2023-05-11T06:06:34.464Z,9.60
2023-05-11T06:09:01.023Z,9.60
2023-05-11T06:11:27.582Z,9.50
2023-05-11T06:13:54.119Z,9.50
2023-05-11T06:16:23.721Z,9.50
2023-05-11T06:18:50.608Z,9.50
2023-05-11T06:21:17.234Z,9.50
2023-05-11T06:23:43.820Z,9.50
2023-05-11T06:26:10.479Z,9.60
2023-05-11T06:28:37.037Z,9.60
2023-05-11T06:31:03.762Z,9.50
2023-05-11T06:33:30.434Z,9.60
2023-05-11T06:35:57.010Z,9.50
2023-05-11T06:38:23.609Z,9.60
2023-05-11T06:40:53.443Z,9.60
2023-05-11T06:43:20.020Z,9.70
2023-05-11T06:45:46.678Z,9.70
2023-05-11T06:48:13.550Z,9.80
2023-05-11T06:50:40.194Z,9.80
2023-05-11T06:53:06.782Z,9.90
2023-05-11T06:55:33.373Z,9.80
2023-05-11T06:57:59.899Z,9.80
2023-05-11T07:00:26.478Z,9.80
2023-05-11T07:02:53.267Z,9.70
2023-05-11T07:05:19.866Z,9.70
2023-05-11T07:07:46.474Z,9.80
2023-05-11T07:10:13.068Z,9.80
2023-05-11T07:12:39.602Z,9.80
2023-05-11T07:15:06.726Z,9.80
2023-05-11T07:17:33.347Z,9.80
2023-05-11T07:19:59.921Z,9.80
2023-05-11T07:22:26.526Z,9.80
2023-05-11T07:24:53.136Z,9.80
2023-05-11T07:27:19.736Z,9.80
2023-05-11T07:29:46.309Z,9.80
2023-05-11T07:32:12.898Z,9.80
2023-05-11T07:34:39.496Z,9.80
2023-05-11T07:37:06.056Z,9.80
2023-05-11T07:39:32.604Z,9.80
2023-05-11T07:41:59.272Z,9.70
2023-05-11T07:44:25.959Z,9.70
2023-05-11T07:46:52.643Z,9.80
2023-05-11T07:49:25.442Z,9.80
2023-05-11T07:52:01.985Z,9.80
2023-05-11T07:54:28.544Z,9.80
2023-05-11T07:56:55.090Z,9.80
2023-05-11T07:59:21.665Z,9.80
2023-05-11T08:01:48.261Z,9.80
2023-05-11T08:04:14.815Z,9.70
2023-05-11T08:06:41.404Z,9.70
2023-05-11T08:09:08.017Z,9.70
2023-05-11T08:11:34.599Z,9.70
2023-05-11T08:14:01.190Z,9.70
2023-05-11T08:16:27.783Z,9.80
2023-05-11T08:18:54.425Z,9.70
2023-05-11T08:21:21.024Z,9.80
2023-05-11T08:23:47.606Z,9.80
2023-05-11T08:26:14.177Z,9.70
2023-05-11T08:28:40.797Z,9.80
2023-05-11T08:31:07.350Z,9.80
2023-05-11T08:33:38.068Z,9.90
2023-05-11T08:36:06.724Z,9.90
2023-05-11T08:38:34.642Z,9.90
2023-05-11T08:41:02.249Z,9.90
2023-05-11T08:43:30.040Z,9.90
2023-05-11T08:46:03.093Z,9.90
2023-05-11T08:48:30.459Z,9.90
2023-05-11T08:50:57.628Z,9.90
2023-05-11T08:53:24.237Z,9.90
2023-05-11T08:55:51.511Z,9.80
2023-05-11T08:58:18.204Z,9.80
2023-05-11T09:00:45.608Z,9.90
2023-05-11T09:03:12.925Z,9.90
2023-05-11T09:05:40.505Z,9.90
2023-05-11T09:08:07.628Z,10.00
2023-05-11T09:10:36.513Z,10.00
2023-05-11T09:13:03.078Z,10.00
2023-05-11T09:15:36.462Z,10.00
2023-05-11T09:18:04.384Z,10.00
2023-05-11T09:20:33.109Z,9.90
2023-05-11T09:23:00.616Z,10.00
2023-05-11T09:25:30.082Z,10.00
2023-05-11T09:27:59.200Z,10.10
2023-05-11T09:30:25.919Z,10.10
2023-05-11T09:32:57.869Z,10.20
2023-05-11T09:35:28.492Z,10.20
2023-05-11T09:38:04.495Z,10.20
2023-05-11T09:40:34.758Z,10.30
2023-05-11T09:43:02.894Z,10.30
2023-05-11T09:45:40.572Z,10.40
2023-05-11T09:48:14.228Z,10.40
2023-05-11T09:50:40.892Z,10.40
2023-05-11T09:53:07.471Z,10.50
2023-05-11T09:55:34.101Z,10.50
2023-05-11T09:58:01.177Z,10.50
2023-05-11T10:00:27.962Z,10.50
2023-05-11T10:03:04.879Z,10.50
2023-05-11T10:05:33.381Z,10.50
2023-05-11T10:08:04.430Z,10.50
2023-05-11T10:10:33.558Z,10.50
2023-05-11T10:13:02.623Z,10.60
2023-05-11T10:15:29.926Z,10.60
2023-05-11T10:17:59.041Z,10.60
2023-05-11T10:20:25.777Z,10.70
2023-05-11T10:22:54.354Z,10.60
2023-05-11T10:25:25.789Z,10.60
2023-05-11T10:27:54.567Z,10.70
2023-05-11T10:30:22.174Z,10.70
2023-05-11T10:32:49.694Z,10.70
2023-05-11T10:35:16.380Z,10.80
2023-05-11T10:37:42.994Z,10.80
2023-05-11T10:40:10.428Z,10.80
2023-05-11T10:43:01.795Z,10.80
2023-05-11T10:45:46.939Z,10.80
2023-05-11T10:48:31.890Z,10.80
2023-05-11T10:51:11.557Z,10.70
2023-05-11T10:54:24.279Z,10.80
2023-05-11T10:57:28.020Z,10.80
2023-05-11T11:00:12.472Z,10.80
2023-05-11T11:02:39.604Z,10.80
2023-05-11T11:05:07.024Z,10.90
2023-05-11T11:08:00.234Z,10.90
2023-05-11T11:10:40.699Z,10.80
2023-05-11T11:13:09.425Z,10.80
2023-05-11T11:15:55.937Z,10.80
2023-05-11T11:18:30.313Z,10.80
2023-05-11T11:20:58.301Z,10.80
2023-05-11T11:23:39.825Z,10.80
2023-05-11T11:26:07.351Z,10.70
2023-05-11T11:28:55.534Z,10.70
2023-05-11T11:31:30.594Z,10.70
2023-05-11T11:34:17.056Z,10.70
2023-05-11T11:36:55.540Z,10.80
2023-05-11T11:39:22.906Z,10.90
2023-05-11T11:42:06.752Z,11.00
2023-05-11T11:44:37.151Z,11.00
2023-05-11T11:47:23.279Z,11.10
2023-05-11T11:49:55.286Z,11.00
2023-05-11T11:52:27.848Z,11.00
2023-05-11T11:54:59.166Z,10.90
2023-05-11T11:57:34.867Z,10.90
2023-05-11T12:00:06.720Z,11.00
2023-05-11T12:02:34.495Z,10.90
2023-05-11T12:05:10.322Z,10.90
2023-05-11T12:07:48.322Z,11.00
2023-05-11T12:10:16.285Z,11.00
2023-05-11T12:12:46.869Z,11.00
2023-05-11T12:15:27.636Z,11.00
2023-05-11T12:17:54.602Z,11.00
2023-05-11T12:20:21.938Z,11.00
2023-05-11T12:22:49.286Z,11.00
2023-05-11T12:25:19.973Z,11.10
2023-05-11T12:27:51.988Z,11.10
2023-05-11T12:30:54.177Z,11.10
2023-05-11T12:33:20.790Z,11.10
2023-05-11T12:35:55.326Z,11.20
2023-05-11T12:38:22.146Z,11.10
2023-05-11T12:40:53.126Z,11.10
2023-05-11T12:43:21.168Z,11.20
2023-05-11T12:45:48.279Z,11.10
2023-05-11T12:48:15.902Z,11.10
2023-05-11T12:50:44.404Z,11.10
2023-05-11T12:53:19.994Z,11.00
2023-05-11T12:56:00.320Z,11.10
2023-05-11T12:58:35.265Z,11.20
2023-05-11T13:01:01.918Z,11.20
2023-05-11T13:03:30.469Z,11.20
2023-05-11T13:06:13.360Z,11.20
2023-05-11T13:08:46.991Z,11.20
2023-05-11T13:11:17.259Z,11.20
2023-05-11T13:13:44.624Z,11.10
2023-05-11T13:16:11.376Z,11.10
2023-05-11T13:18:38.231Z,11.10
2023-05-11T13:21:06.777Z,11.10
2023-05-11T13:23:33.435Z,11.00
2023-05-11T13:26:00.481Z,11.10
2023-05-11T13:28:27.033Z,11.10
2023-05-11T13:31:02.559Z,11.20
2023-05-11T13:33:29.379Z,11.20
2023-05-11T13:35:56.017Z,11.30
2023-05-11T13:38:22.552Z,11.30
2023-05-11T13:40:49.198Z,11.30
2023-05-11T13:43:15.754Z,11.30
2023-05-11T13:45:42.359Z,11.40
2023-05-11T13:48:08.931Z,11.40
2023-05-11T13:50:35.542Z,11.40
2023-05-11T13:53:02.132Z,11.50
2023-05-11T13:55:29.032Z,11.60
2023-05-11T13:57:55.924Z,11.50
2023-05-11T14:00:22.693Z,11.60
2023-05-11T14:02:49.306Z,11.60
2023-05-11T14:05:16.830Z,11.60
2023-05-11T14:07:48.181Z,11.60
2023-05-11T14:10:16.745Z,11.60
2023-05-11T14:12:43.359Z,11.50
2023-05-11T14:15:10.649Z,11.40
2023-05-11T14:17:37.436Z,11.50
2023-05-11T14:20:04.790Z,11.50
2023-05-11T14:22:31.490Z,11.40
2023-05-11T14:24:58.071Z,11.50
2023-05-11T14:27:24.650Z,11.60
2023-05-11T14:29:51.398Z,11.70
2023-05-11T14:32:18.351Z,11.70
2023-05-11T14:34:45.004Z,11.70
2023-05-11T14:37:11.649Z,11.50
2023-05-11T14:39:38.245Z,11.60
2023-05-11T14:42:05.238Z,11.70
2023-05-11T14:44:31.815Z,11.70
2023-05-11T14:46:58.495Z,11.70
2023-05-11T14:49:25.042Z,11.80
2023-05-11T14:51:51.641Z,11.70
2023-05-11T14:54:18.183Z,11.70
2023-05-11T14:56:45.928Z,11.70
2023-05-11T14:59:12.502Z,11.80
2023-05-11T15:01:39.224Z,11.70
2023-05-11T15:04:05.881Z,11.70
2023-05-11T15:06:32.514Z,11.80
2023-05-11T15:08:59.073Z,11.70
2023-05-11T15:11:25.687Z,11.70
2023-05-11T15:13:52.311Z,11.60
2023-05-11T15:16:18.889Z,11.60
2023-05-11T15:18:45.547Z,11.60
2023-05-11T15:21:12.131Z,11.70
2023-05-11T15:23:38.679Z,11.60
2023-05-11T15:26:05.254Z,11.60
2023-05-11T15:28:31.870Z,11.60
2023-05-11T15:30:58.443Z,11.60
2023-05-11T15:33:25.045Z,11.60
2023-05-11T15:35:51.691Z,11.50
2023-05-11T15:38:18.691Z,11.60
2023-05-11T15:40:45.221Z,11.60
2023-05-11T15:43:11.871Z,11.60
2023-05-11T15:45:38.575Z,11.70
2023-05-11T15:48:05.683Z,11.60
2023-05-11T15:50:32.274Z,11.50
2023-05-11T15:52:58.822Z,11.40
2023-05-11T15:55:25.376Z,11.50
2023-05-11T15:57:52.013Z,11.50
2023-05-11T16:00:18.938Z,11.50
2023-05-11T16:02:46.177Z,11.40
2023-05-11T16:05:12.959Z,11.40
2023-05-11T16:07:40.022Z,11.40
2023-05-11T16:10:07.094Z,11.40
2023-05-11T16:12:33.687Z,11.40
2023-05-11T16:15:00.230Z,11.40
2023-05-11T16:17:26.914Z,11.30
2023-05-11T16:19:53.505Z,11.30
2023-05-11T16:22:20.061Z,11.30
2023-05-11T16:24:46.612Z,11.20
2023-05-11T16:27:13.192Z,11.10
2023-05-11T16:29:39.722Z,11.10
2023-05-11T16:32:06.394Z,11.20
2023-05-11T16:34:33.058Z,11.20
2023-05-11T16:36:59.607Z,11.20
2023-05-11T16:39:26.419Z,11.20
2023-05-11T16:41:52.983Z,11.30
2023-05-11T16:44:19.641Z,11.30
2023-05-11T16:46:46.411Z,11.30
2023-05-11T16:49:13.149Z,11.20
2023-05-11T16:51:39.805Z,11.10
2023-05-11T16:54:06.724Z,11.10
2023-05-11T16:56:33.304Z,11.10
2023-05-11T16:58:59.863Z,11.10
2023-05-11T17:01:26.417Z,11.10
2023-05-11T17:03:53.188Z,11.10
2023-05-11T17:06:20.916Z,11.10
2023-05-11T17:08:47.776Z,11.10
2023-05-11T17:11:14.457Z,11.10
2023-05-11T17:13:41.147Z,11.10
2023-05-11T17:16:07.876Z,11.20
2023-05-11T17:18:34.545Z,11.20
2023-05-11T17:21:01.123Z,11.20
2023-05-11T17:23:27.648Z,11.10
2023-05-11T17:25:54.288Z,11.10
2023-05-11T17:28:20.984Z,11.20
2023-05-11T17:30:52.390Z,11.20
2023-05-11T17:33:19.077Z,11.10
2023-05-11T17:35:45.833Z,11.20
2023-05-11T17:38:12.427Z,11.10
2023-05-11T17:40:39.137Z,11.10
2023-05-11T17:43:05.715Z,11.20
2023-05-11T17:45:32.322Z,11.20
2023-05-11T17:47:58.968Z,11.20
2023-05-11T17:50:25.531Z,11.20
2023-05-11T17:52:52.186Z,11.20
2023-05-11T17:55:19.029Z,11.10
2023-05-11T17:57:45.792Z,11.10
2023-05-11T18:00:12.749Z,11.10
2023-05-11T18:02:39.398Z,11.10
2023-05-11T18:05:06.452Z,11.00
2023-05-11T18:07:32.993Z,11.00
2023-05-11T18:09:59.566Z,11.00
2023-05-11T18:12:26.426Z,11.00
2023-05-11T18:14:53.001Z,11.00
2023-05-11T18:17:19.600Z,10.90
2023-05-11T18:19:46.182Z,10.90
2023-05-11T18:22:12.837Z,10.80
2023-05-11T18:24:39.409Z,10.80
2023-05-11T18:27:06.057Z,10.70
2023-05-11T18:29:32.614Z,10.70
2023-05-11T18:31:59.213Z,10.70
2023-05-11T18:34:25.827Z,10.70
2023-05-11T18:36:52.388Z,10.70
2023-05-11T18:39:18.975Z,10.70
2023-05-11T18:41:45.590Z,10.70
2023-05-11T18:44:12.136Z,10.60
2023-05-11T18:46:38.771Z,10.70
2023-05-11T18:49:05.362Z,10.70
2023-05-11T18:51:31.960Z,10.70
2023-05-11T18:53:58.563Z,10.70
2023-05-11T18:56:25.084Z,10.70
2023-05-11T18:58:51.630Z,10.70
2023-05-11T19:01:18.233Z,10.70
2023-05-11T19:03:44.983Z,10.70
2023-05-11T19:06:11.668Z,10.70
2023-05-11T19:08:38.400Z,10.70
2023-05-11T19:11:07.028Z,10.70
2023-05-11T19:13:33.955Z,10.70
2023-05-11T19:16:00.608Z,10.60
2023-05-11T19:18:27.848Z,10.60
2023-05-11T19:20:54.714Z,10.50
2023-05-11T19:23:21.479Z,10.60
2023-05-11T19:25:48.143Z,10.60
2023-05-11T19:28:14.810Z,10.60
2023-05-11T19:30:41.394Z,10.60
2023-05-11T19:33:08.025Z,10.60
2023-05-11T19:35:34.604Z,10.60
2023-05-11T19:38:01.193Z,10.60
2023-05-11T19:40:45.448Z,10.60
2023-05-11T19:43:13.342Z,10.50
2023-05-11T19:45:40.071Z,10.50
2023-05-11T19:48:06.643Z,10.50
2023-05-11T19:50:33.328Z,10.50
2023-05-11T19:52:59.900Z,10.50
2023-05-11T19:55:26.522Z,10.50
2023-05-11T19:57:53.160Z,10.50
2023-05-11T20:00:19.973Z,10.50
2023-05-11T20:02:46.922Z,10.50
2023-05-11T20:05:13.580Z,10.50
2023-05-11T20:07:40.131Z,10.50
2023-05-11T20:10:07.377Z,10.60
2023-05-11T20:12:34.186Z,10.60
2023-05-11T20:15:00.767Z,10.50
2023-05-11T20:17:27.309Z,10.50
2023-05-11T20:19:54.006Z,10.60
2023-05-11T20:22:20.565Z,10.60
2023-05-11T20:24:47.121Z,10.60
2023-05-11T20:27:13.700Z,10.60
2023-05-11T20:29:40.323Z,10.60
2023-05-11T20:32:07.249Z,10.60
2023-05-11T20:34:34.090Z,10.60
2023-05-11T20:37:00.720Z,10.60
2023-05-11T20:39:27.514Z,10.50
2023-05-11T20:41:54.354Z,10.50
2023-05-11T20:44:20.900Z,10.50
2023-05-11T20:46:47.462Z,10.50
2023-05-11T20:49:14.195Z,10.50
2023-05-11T20:51:42.341Z,10.50
2023-05-11T20:54:09.008Z,10.50
2023-05-11T20:56:35.658Z,10.50
2023-05-11T20:59:02.282Z,10.50
2023-05-11T21:01:28.904Z,10.50
2023-05-11T21:03:55.542Z,10.50
2023-05-11T21:06:22.155Z,10.50
2023-05-11T21:08:49.497Z,10.50
2023-05-11T21:11:16.248Z,10.50
2023-05-11T21:13:42.874Z,10.50
2023-05-11T21:16:09.566Z,10.50
2023-05-11T21:18:36.235Z,10.40
2023-05-11T21:21:03.849Z,10.40
2023-05-11T21:23:30.620Z,10.40
2023-05-11T21:25:58.818Z,10.40
2023-05-11T21:28:26.100Z,10.40
2023-05-11T21:30:53.435Z,10.40
2023-05-11T21:33:20.444Z,10.40
2023-05-11T21:35:47.743Z,10.40
2023-05-11T21:38:14.315Z,10.40
2023-05-11T21:40:41.447Z,10.40
2023-05-11T21:43:09.757Z,10.40
2023-05-11T21:45:37.077Z,10.40
2023-05-11T21:48:03.980Z,10.50
2023-05-11T21:50:30.547Z,10.40
2023-05-11T21:52:57.084Z,10.50
2023-05-11T21:55:23.833Z,10.40
2023-05-11T21:57:50.387Z,10.40
2023-05-11T22:00:18.244Z,10.40
2023-05-11T22:02:45.561Z,10.40
2023-05-11T22:05:12.279Z,10.40
2023-05-11T22:07:38.839Z,10.50
2023-05-11T22:10:05.863Z,10.40
2023-05-11T22:12:32.761Z,10.40
2023-05-11T22:14:59.392Z,10.40
2023-05-11T22:17:26.003Z,10.40
2023-05-11T22:19:52.622Z,10.40
2023-05-11T22:22:19.191Z,10.40
2023-05-11T22:24:45.719Z,10.30
2023-05-11T22:27:12.330Z,10.30
2023-05-11T22:29:38.892Z,10.30
2023-05-11T22:32:06.026Z,10.30
2023-05-11T22:34:32.641Z,10.30
2023-05-11T22:36:59.249Z,10.30
2023-05-11T22:39:25.856Z,10.30
2023-05-11T22:41:52.448Z,10.30
2023-05-11T22:44:19.007Z,10.20
2023-05-11T22:46:45.764Z,10.30
2023-05-11T22:49:12.328Z,10.20
2023-05-11T22:51:38.927Z,10.20
2023-05-11T22:54:05.625Z,10.20
2023-05-11T22:56:32.226Z,10.20
2023-05-11T22:58:58.779Z,10.20
2023-05-11T23:01:26.223Z,10.20
2023-05-11T23:03:52.965Z,10.30
2023-05-11T23:06:19.538Z,10.30
2023-05-11T23:08:46.200Z,10.30
2023-05-11T23:11:12.740Z,10.30
2023-05-11T23:13:40.525Z,10.30
2023-05-11T23:16:08.820Z,10.30
2023-05-11T23:18:35.638Z,10.30
2023-05-11T23:21:02.287Z,10.20
2023-05-11T23:23:28.830Z,10.30
2023-05-11T23:25:55.423Z,10.30
2023-05-11T23:28:21.987Z,10.30
2023-05-11T23:30:48.536Z,10.30
2023-05-11T23:33:15.170Z,10.20
2023-05-11T23:35:41.846Z,10.20
2023-05-11T23:38:08.504Z,10.20
2023-05-11T23:40:35.092Z,10.20
2023-05-11T23:43:01.669Z,10.20
2023-05-11T23:45:28.299Z,10.20
2023-05-11T23:47:54.853Z,10.30
2023-05-11T23:50:21.575Z,10.30
2023-05-11T23:52:48.252Z,10.20
2023-05-11T23:55:14.794Z,10.20
2023-05-11T23:57:41.353Z,10.20
